createdAt,value
2022-12-09T00:01:24.310Z,10.18
2022-12-09T00:03:51.231Z,9.80
2022-12-09T00:06:25.139Z,10.85
2022-12-09T00:08:53.241Z,8.75
2022-12-09T00:11:21.547Z,9.60
2022-12-09T00:13:57.012Z,11.55
2022-12-09T00:16:26.714Z,10.48
2022-12-09T00:18:53.634Z,9.80
2022-12-09T00:21:27.641Z,11.38
2022-12-09T00:23:57.034Z,10.55
2022-12-09T00:26:25.400Z,10.25
2022-12-09T00:28:52.866Z,10.15
2022-12-09T00:31:24.762Z,7.95
2022-12-09T00:36:22.648Z,8.65
2022-12-09T00:38:54.089Z,9.27
2022-12-09T00:41:21.146Z,9.93
2022-12-09T00:43:48.442Z,8.95
2022-12-09T00:46:18.414Z,9.48
2022-12-09T00:48:48.206Z,9.93
2022-12-09T00:51:18.105Z,13.85
2022-12-09T00:53:45.369Z,9.40
2022-12-09T00:56:12.185Z,10.98
2022-12-09T00:58:38.986Z,8.70
2022-12-09T01:01:06.063Z,9.68
2022-12-09T01:03:35.344Z,11.43
2022-12-09T01:06:08.267Z,11.63
2022-12-09T01:08:38.488Z,7.95
2022-12-09T01:11:16.314Z,11.25
2022-12-09T01:13:43.069Z,10.82
2022-12-09T01:16:18.036Z,10.02
2022-12-09T01:18:47.933Z,12.73
2022-12-09T01:21:14.736Z,11.77
2022-12-09T01:23:41.861Z,9.95
2022-12-09T01:26:09.108Z,9.60
2022-12-09T01:28:37.710Z,10.77
2022-12-09T01:31:09.641Z,11.18
2022-12-09T01:33:37.076Z,7.38
2022-12-09T01:36:10.726Z,9.07
2022-12-09T01:38:38.067Z,12.32
2022-12-09T01:41:09.453Z,13.02
2022-12-09T01:43:38.284Z,11.90
2022-12-09T01:46:05.258Z,10.48
2022-12-09T01:48:44.731Z,12.93
2022-12-09T01:51:15.680Z,12.43
2022-12-09T01:53:49.048Z,10.50
2022-12-09T01:56:24.268Z,6.50
2022-12-09T01:58:57.210Z,9.73
2022-12-09T02:01:29.257Z,12.35
2022-12-09T02:03:56.382Z,11.93
2022-12-09T02:06:25.786Z,14.40
2022-12-09T02:08:53.319Z,11.55
2022-12-09T02:11:50.640Z,11.45
2022-12-09T02:14:21.182Z,11.18
2022-12-09T02:17:09.311Z,13.15
2022-12-09T02:19:44.613Z,10.45
2022-12-09T02:22:19.203Z,11.50
2022-12-09T02:25:01.433Z,9.77
2022-12-09T02:27:44.512Z,12.07
2022-12-09T02:30:23.868Z,10.95
2022-12-09T02:33:17.417Z,13.07
2022-12-09T02:35:52.768Z,11.50
2022-12-09T02:38:28.843Z,11.20
2022-12-09T02:41:21.867Z,10.18
2022-12-09T02:43:57.551Z,11.57
2022-12-09T02:46:28.415Z,9.57
2022-12-09T02:48:58.530Z,9.37
2022-12-09T02:51:32.186Z,9.98
2022-12-09T02:54:10.005Z,9.93
2022-12-09T02:56:38.520Z,9.82
2022-12-09T02:59:05.596Z,10.85
2022-12-09T03:01:45.903Z,9.25
2022-12-09T03:04:27.087Z,13.43
2022-12-09T03:06:56.620Z,9.95
2022-12-09T03:09:33.888Z,12.48
2022-12-09T03:12:08.848Z,12.23
2022-12-09T03:14:45.406Z,13.73
2022-12-09T03:17:19.730Z,14.45
2022-12-09T03:19:49.966Z,10.07
2022-12-09T03:22:26.030Z,13.70
2022-12-09T03:25:08.166Z,11.10
2022-12-09T03:27:42.332Z,13.50
2022-12-09T03:30:11.134Z,10.90
2022-12-09T03:32:39.768Z,9.75
2022-12-09T03:35:13.803Z,12.73
2022-12-09T03:37:42.104Z,14.23
2022-12-09T03:40:14.329Z,11.05
2022-12-09T03:42:53.202Z,12.75
2022-12-09T03:45:24.854Z,10.85
2022-12-09T03:47:52.382Z,12.80
2022-12-09T03:50:21.883Z,12.65
2022-12-09T03:52:54.001Z,12.77
2022-12-09T03:55:32.739Z,10.98
2022-12-09T03:58:01.450Z,11.73
2022-12-09T04:00:28.944Z,11.48
2022-12-09T04:02:55.734Z,12.38
2022-12-09T04:05:25.232Z,17.17
2022-12-09T04:07:52.459Z,13.18
2022-12-09T04:10:21.748Z,15.32
2022-12-09T04:12:48.397Z,17.15
2022-12-09T04:15:15.269Z,14.50
2022-12-09T04:17:42.351Z,16.27
2022-12-09T04:20:09.965Z,15.68
2022-12-09T04:22:36.989Z,15.18
2022-12-09T04:25:03.767Z,16.13
2022-12-09T04:27:30.787Z,17.00
2022-12-09T04:29:57.566Z,14.02
2022-12-09T04:32:24.597Z,14.20
2022-12-09T04:34:51.442Z,16.25
2022-12-09T04:37:18.685Z,14.20
2022-12-09T04:39:45.412Z,13.93
2022-12-09T04:42:12.201Z,13.23
2022-12-09T04:44:39.247Z,12.65
2022-12-09T04:47:06.262Z,15.20
2022-12-09T04:49:33.564Z,11.70
2022-12-09T04:52:00.743Z,10.43
2022-12-09T04:54:30.333Z,11.18
2022-12-09T04:56:59.809Z,15.00
2022-12-09T04:59:30.247Z,9.85
2022-12-09T05:01:57.266Z,13.38
2022-12-09T05:04:24.232Z,12.80
2022-12-09T05:06:54.231Z,12.90
2022-12-09T05:09:21.757Z,10.85
2022-12-09T05:11:48.553Z,13.40
2022-12-09T05:14:15.460Z,11.80
2022-12-09T05:16:45.436Z,14.52
2022-12-09T05:19:14.626Z,18.77
2022-12-09T05:21:44.088Z,15.38
2022-12-09T05:24:13.679Z,14.27
2022-12-09T05:26:41.150Z,16.92
2022-12-09T05:29:08.147Z,14.82
2022-12-09T05:31:35.036Z,13.18
2022-12-09T05:34:04.809Z,14.52
2022-12-09T05:36:34.361Z,12.90
2022-12-09T05:39:03.833Z,11.63
2022-12-09T05:41:30.825Z,12.07
2022-12-09T05:44:02.846Z,15.93
2022-12-09T05:49:01.305Z,13.70
2022-12-09T05:51:29.281Z,11.77
2022-12-09T05:53:58.157Z,13.63
2022-12-09T05:56:25.495Z,12.75
2022-12-09T05:58:53.534Z,16.02
2022-12-09T06:01:23.751Z,14.77
2022-12-09T06:03:52.214Z,18.73
2022-12-09T06:06:20.936Z,14.55
2022-12-09T06:08:50.848Z,15.77
2022-12-09T06:11:24.812Z,18.88
2022-12-09T06:13:52.522Z,16.38
2022-12-09T06:16:23.315Z,17.45
2022-12-09T06:18:51.392Z,13.82
2022-12-09T06:21:22.939Z,18.25
2022-12-09T06:23:53.636Z,14.48
2022-12-09T06:26:23.249Z,16.10
2022-12-09T06:28:50.992Z,17.02
2022-12-09T06:31:18.331Z,15.23
2022-12-09T06:33:55.391Z,15.88
2022-12-09T06:36:24.233Z,16.55
2022-12-09T06:38:53.366Z,17.20
2022-12-09T06:44:21.721Z,19.83
2022-12-09T06:46:50.599Z,17.58
2022-12-09T06:49:18.464Z,19.38
2022-12-09T06:51:50.601Z,18.67
2022-12-09T06:54:17.486Z,16.95
2022-12-09T06:56:44.875Z,20.38
2022-12-09T06:59:11.987Z,19.52
2022-12-09T07:01:39.099Z,17.20
2022-12-09T07:04:07.202Z,17.92
2022-12-09T07:06:37.416Z,18.45
2022-12-09T07:09:16.926Z,19.27
2022-12-09T07:11:47.980Z,20.35
2022-12-09T07:14:16.779Z,19.17
2022-12-09T07:16:46.955Z,18.73
2022-12-09T07:19:21.291Z,22.45
2022-12-09T07:21:49.623Z,20.40
2022-12-09T07:24:18.484Z,19.05
2022-12-09T07:26:45.806Z,19.27
2022-12-09T07:29:12.866Z,21.65
2022-12-09T07:31:39.747Z,21.13
2022-12-09T07:34:07.007Z,17.50
2022-12-09T07:36:35.167Z,19.17
2022-12-09T07:39:05.576Z,22.80
2022-12-09T07:41:32.541Z,15.70
2022-12-09T07:43:59.805Z,17.65
2022-12-09T07:46:29.848Z,19.10
2022-12-09T07:48:59.535Z,21.52
2022-12-09T07:51:26.802Z,16.05
2022-12-09T07:53:54.182Z,17.25
2022-12-09T07:56:22.633Z,17.10
2022-12-09T07:58:53.353Z,17.80
2022-12-09T08:01:28.630Z,16.75
2022-12-09T08:03:58.611Z,22.42
2022-12-09T08:06:30.330Z,22.33
2022-12-09T08:09:02.446Z,20.83
2022-12-09T08:11:33.913Z,22.33
2022-12-09T08:14:10.879Z,13.93
2022-12-09T08:16:42.627Z,25.42
2022-12-09T08:19:11.219Z,20.33
2022-12-09T08:21:40.719Z,22.30
2022-12-09T08:24:11.141Z,21.27
2022-12-09T08:26:39.442Z,21.08
2022-12-09T08:29:14.363Z,21.25
2022-12-09T08:31:43.834Z,17.75
2022-12-09T08:34:14.174Z,21.45
2022-12-09T08:36:44.349Z,19.65
2022-12-09T08:39:13.172Z,20.48
2022-12-09T08:41:41.004Z,22.52
2022-12-09T08:44:10.390Z,18.75
2022-12-09T08:46:41.906Z,19.80
2022-12-09T08:49:30.596Z,18.70
2022-12-09T08:51:59.715Z,19.95
2022-12-09T08:54:26.867Z,21.83
2022-12-09T08:57:00.410Z,18.42
2022-12-09T08:59:57.141Z,21.38
2022-12-09T09:02:24.593Z,22.92
2022-12-09T09:05:04.025Z,26.42
2022-12-09T09:07:34.182Z,22.20
2022-12-09T09:10:01.866Z,25.08
2022-12-09T09:12:32.910Z,21.00
2022-12-09T09:15:03.528Z,22.40
2022-12-09T09:17:30.727Z,23.25
2022-12-09T09:20:00.152Z,27.75
2022-12-09T09:22:27.931Z,23.83
2022-12-09T09:24:55.582Z,21.80
2022-12-09T09:27:22.514Z,21.60
2022-12-09T09:29:49.601Z,17.70
2022-12-09T09:32:18.831Z,18.67
2022-12-09T09:34:50.644Z,19.83
2022-12-09T09:39:47.942Z,19.70
2022-12-09T09:42:19.747Z,20.15
2022-12-09T09:44:49.392Z,17.42
2022-12-09T09:47:36.227Z,19.48
2022-12-09T09:50:45.535Z,17.55
2022-12-09T09:53:20.212Z,17.40
2022-12-09T09:55:56.910Z,25.20
2022-12-09T09:58:39.028Z,30.83
2022-12-09T10:03:55.026Z,31.65
2022-12-09T10:06:47.790Z,27.58
2022-12-09T10:09:34.003Z,20.60
2022-12-09T10:12:06.521Z,25.63
2022-12-09T10:14:34.058Z,19.05
2022-12-09T10:17:27.190Z,22.00
2022-12-09T10:20:18.979Z,19.50
2022-12-09T10:23:07.151Z,19.85
2022-12-09T10:25:38.441Z,22.80
2022-12-09T10:28:25.524Z,18.27
2022-12-09T10:31:00.054Z,21.38
2022-12-09T10:33:36.093Z,19.08
2022-12-09T10:36:04.169Z,19.38
2022-12-09T10:38:37.728Z,21.23
2022-12-09T10:41:57.124Z,19.08
2022-12-09T10:44:28.344Z,21.33
2022-12-09T10:47:07.970Z,15.52
2022-12-09T10:49:38.542Z,14.20
2022-12-09T10:52:06.374Z,19.20
2022-12-09T10:54:40.149Z,19.55
2022-12-09T10:57:16.339Z,20.88
2022-12-09T11:00:07.029Z,21.60
2022-12-09T11:02:51.484Z,18.17
2022-12-09T11:05:31.905Z,20.02
2022-12-09T11:07:59.634Z,21.08
2022-12-09T11:10:31.482Z,20.60
2022-12-09T11:13:15.259Z,19.75
2022-12-09T11:15:50.335Z,21.75
2022-12-09T11:18:37.435Z,22.02
2022-12-09T11:21:07.818Z,20.35
2022-12-09T11:23:35.968Z,20.75
2022-12-09T11:26:07.065Z,21.70
2022-12-09T11:28:43.336Z,20.40
2022-12-09T11:31:29.414Z,20.60
2022-12-09T11:34:06.468Z,21.55
2022-12-09T11:36:36.936Z,20.50
2022-12-09T11:42:16.951Z,21.70
2022-12-09T11:44:53.484Z,24.45
2022-12-09T11:50:34.060Z,25.80
2022-12-09T11:53:08.819Z,24.90
2022-12-09T11:55:45.702Z,26.25
2022-12-09T11:58:17.462Z,26.50
2022-12-09T12:00:59.084Z,26.08
2022-12-09T12:03:40.710Z,30.27
2022-12-09T12:06:24.336Z,32.17
2022-12-09T12:09:01.054Z,25.88
2022-12-09T12:11:36.056Z,28.83
2022-12-09T12:14:17.465Z,25.95
2022-12-09T12:17:27.247Z,30.52
2022-12-09T12:19:57.545Z,28.83
2022-12-09T12:22:39.412Z,30.45
2022-12-09T12:25:33.904Z,34.25
2022-12-09T12:28:25.577Z,26.92
2022-12-09T12:31:01.636Z,28.85
2022-12-09T12:36:48.420Z,31.30
2022-12-09T12:39:55.781Z,28.45
2022-12-09T12:42:35.547Z,29.27
2022-12-09T12:45:33.052Z,28.75
2022-12-09T12:48:14.510Z,30.15
2022-12-09T12:50:42.272Z,29.40
2022-12-09T12:53:30.047Z,29.13
2022-12-09T12:56:00.037Z,29.30
2022-12-09T12:58:54.150Z,24.38
2022-12-09T13:01:33.565Z,28.48
2022-12-09T13:04:24.229Z,32.08
2022-12-09T13:07:05.187Z,27.25
2022-12-09T13:09:34.970Z,28.58
2022-12-09T13:12:13.899Z,28.52
2022-12-09T13:14:55.611Z,28.80
2022-12-09T13:17:31.362Z,26.30
2022-12-09T13:20:01.248Z,35.45
2022-12-09T13:22:43.961Z,31.52
2022-12-09T13:25:41.432Z,33.17
2022-12-09T13:28:19.262Z,30.63
2022-12-09T13:30:55.451Z,29.63
2022-12-09T13:33:36.301Z,28.55
2022-12-09T13:36:18.230Z,33.88
2022-12-09T13:38:45.029Z,34.08
2022-12-09T13:41:28.796Z,37.25
2022-12-09T13:44:09.417Z,40.10
2022-12-09T13:46:36.513Z,38.50
2022-12-09T13:49:26.804Z,36.92
2022-12-09T13:51:58.922Z,33.80
2022-12-09T13:54:29.472Z,41.40
2022-12-09T13:57:11.013Z,54.00
2022-12-09T13:59:40.558Z,51.20
2022-12-09T14:02:25.497Z,44.58
2022-12-09T14:05:30.213Z,38.70
2022-12-09T14:08:24.879Z,45.10
2022-12-09T14:10:53.154Z,39.47
2022-12-09T14:13:34.898Z,39.70
2022-12-09T14:16:28.909Z,38.25
2022-12-09T14:18:57.287Z,38.83
2022-12-09T14:21:26.661Z,38.67
2022-12-09T14:24:17.763Z,45.67
2022-12-09T14:26:47.827Z,43.88
2022-12-09T14:29:42.254Z,43.20
2022-12-09T14:32:38.130Z,35.90
2022-12-09T14:35:41.393Z,40.10
2022-12-09T14:38:25.557Z,41.03
2022-12-09T14:41:05.898Z,42.55
2022-12-09T14:43:55.714Z,44.08
2022-12-09T14:46:32.921Z,44.25
2022-12-09T14:49:48.595Z,40.65
2022-12-09T14:52:33.173Z,44.65
2022-12-09T14:55:06.905Z,42.08
2022-12-09T14:57:55.014Z,42.85
2022-12-09T15:00:36.077Z,41.40
2022-12-09T15:05:54.838Z,50.40
2022-12-09T15:08:53.814Z,45.97
2022-12-09T15:11:34.265Z,48.22
2022-12-09T15:14:24.972Z,55.78
2022-12-09T15:16:52.345Z,46.30
2022-12-09T15:19:58.611Z,57.22
2022-12-09T15:22:27.992Z,50.53
2022-12-09T15:25:00.647Z,32.63
2022-12-09T15:27:27.399Z,50.00
2022-12-09T15:29:54.882Z,47.97
2022-12-09T15:32:26.708Z,48.88
2022-12-09T15:34:58.822Z,44.17
2022-12-09T15:37:29.960Z,46.97
2022-12-09T15:40:08.611Z,48.33
2022-12-09T15:42:42.263Z,41.65
2022-12-09T15:45:11.812Z,50.08
2022-12-09T15:47:48.769Z,35.72
2022-12-09T15:50:18.292Z,40.70
2022-12-09T15:52:52.771Z,48.20
2022-12-09T15:55:31.519Z,44.92
2022-12-09T15:58:00.660Z,46.83
2022-12-09T16:00:29.948Z,53.90
2022-12-09T16:02:56.993Z,52.13
2022-12-09T16:05:30.954Z,45.60
2022-12-09T16:08:03.908Z,52.45
2022-12-09T16:10:30.914Z,57.10
2022-12-09T16:13:11.490Z,44.70
2022-12-09T16:15:45.080Z,56.20
2022-12-09T16:18:46.790Z,47.78
2022-12-09T16:21:32.905Z,54.42
2022-12-09T16:24:10.140Z,51.47
2022-12-09T16:26:41.954Z,56.40
2022-12-09T16:29:23.045Z,50.42
2022-12-09T16:32:25.617Z,52.50
2022-12-09T16:34:55.661Z,39.22
2022-12-09T16:37:22.395Z,50.95
2022-12-09T16:39:49.280Z,52.50
2022-12-09T16:42:39.292Z,53.40
2022-12-09T16:45:31.920Z,51.92
2022-12-09T16:48:02.609Z,46.00
2022-12-09T16:50:41.757Z,54.15
2022-12-09T16:53:24.514Z,41.88
2022-12-09T16:55:55.788Z,56.38
2022-12-09T16:58:25.232Z,39.78
2022-12-09T17:00:52.442Z,58.80
2022-12-09T17:04:00.611Z,56.47
2022-12-09T17:06:31.474Z,53.47
2022-12-09T17:08:58.364Z,66.20
2022-12-09T17:11:32.327Z,58.15
2022-12-09T17:14:01.158Z,51.75
2022-12-09T17:16:28.478Z,46.15
2022-12-09T17:18:55.425Z,38.30
2022-12-09T17:21:24.355Z,53.05
2022-12-09T17:23:53.276Z,42.67
2022-12-09T17:26:20.770Z,50.47
2022-12-09T17:28:50.697Z,54.50
2022-12-09T17:31:22.914Z,41.33
2022-12-09T17:33:50.110Z,46.97
2022-12-09T17:36:20.479Z,51.05
2022-12-09T17:38:52.123Z,71.30
2022-12-09T17:41:23.646Z,61.40
2022-12-09T17:43:51.104Z,60.50
2022-12-09T17:46:21.486Z,62.30
2022-12-09T17:48:50.447Z,76.70
2022-12-09T17:51:21.963Z,72.30
2022-12-09T17:53:50.432Z,58.65
2022-12-09T17:56:22.281Z,51.60
2022-12-09T17:58:58.980Z,55.42
2022-12-09T18:01:26.205Z,54.65
2022-12-09T18:04:01.344Z,55.63
2022-12-09T18:06:34.794Z,51.78
2022-12-09T18:09:06.586Z,56.53
2022-12-09T18:11:34.134Z,60.17
2022-12-09T18:14:01.432Z,71.82
2022-12-09T18:16:28.613Z,56.35
2022-12-09T18:18:58.129Z,61.97
2022-12-09T18:21:27.000Z,48.00
2022-12-09T18:23:56.075Z,54.30
2022-12-09T18:26:28.591Z,57.38
2022-12-09T18:29:02.953Z,53.95
2022-12-09T18:31:29.902Z,47.92
2022-12-09T18:33:56.727Z,53.67
2022-12-09T18:36:26.828Z,63.72
2022-12-09T18:38:57.955Z,48.20
2022-12-09T18:41:29.405Z,52.23
2022-12-09T18:44:01.094Z,56.03
2022-12-09T18:46:30.402Z,52.22
2022-12-09T18:49:15.952Z,49.35
2022-12-09T18:51:44.759Z,63.08
2022-12-09T18:54:17.195Z,66.30
2022-12-09T18:56:44.431Z,66.13
2022-12-09T18:59:13.833Z,77.00
2022-12-09T19:01:43.402Z,51.97
2022-12-09T19:04:30.904Z,58.55
2022-12-09T19:07:01.779Z,53.25
2022-12-09T19:09:36.391Z,59.95
2022-12-09T19:12:38.349Z,68.50
2022-12-09T19:14:53.977Z,53.60
2022-12-09T19:17:21.762Z,48.85
2022-12-09T19:19:49.374Z,44.92
2022-12-09T19:22:25.761Z,42.65
2022-12-09T19:24:52.534Z,43.08
2022-12-09T19:27:19.348Z,42.03
2022-12-09T19:29:46.009Z,46.45
2022-12-09T19:32:50.982Z,41.55
2022-12-09T19:35:01.615Z,40.03
2022-12-09T19:37:28.435Z,43.30
2022-12-09T19:39:55.150Z,46.15
2022-12-09T19:42:21.810Z,43.75
2022-12-09T19:45:12.127Z,42.50
2022-12-09T19:47:37.942Z,45.00
2022-12-09T19:50:10.496Z,37.00
2022-12-09T19:52:42.446Z,34.97
2022-12-09T19:55:09.530Z,42.20
2022-12-09T19:57:36.479Z,37.00
2022-12-09T20:00:04.170Z,33.90
2022-12-09T20:02:34.260Z,41.13
2022-12-09T20:05:06.459Z,35.50
2022-12-09T20:07:35.522Z,38.17
2022-12-09T20:10:02.394Z,38.58
2022-12-09T20:12:33.874Z,30.00
2022-12-09T20:15:02.872Z,43.67
2022-12-09T20:17:29.596Z,34.33
2022-12-09T20:20:01.378Z,36.92
2022-12-09T20:22:29.781Z,35.88
2022-12-09T20:24:59.077Z,43.17
2022-12-09T20:27:26.169Z,33.97
2022-12-09T20:29:52.945Z,36.92
2022-12-09T20:32:24.608Z,38.78
2022-12-09T20:34:55.610Z,35.35
2022-12-09T20:37:22.765Z,39.03
2022-12-09T20:39:51.865Z,38.45
2022-12-09T20:42:18.625Z,34.35
2022-12-09T20:44:48.225Z,31.23
2022-12-09T20:47:17.273Z,31.60
2022-12-09T20:49:44.087Z,33.63
2022-12-09T20:52:10.983Z,31.92
2022-12-09T20:54:40.590Z,35.28
2022-12-09T20:57:11.958Z,33.65
2022-12-09T20:59:40.916Z,25.58
2022-12-09T21:02:13.841Z,32.25
2022-12-09T21:04:44.024Z,35.22
2022-12-09T21:07:10.813Z,35.88
2022-12-09T21:09:40.404Z,36.33
2022-12-09T21:12:09.311Z,35.03
2022-12-09T21:14:38.315Z,33.72
2022-12-09T21:17:05.258Z,32.33
2022-12-09T21:19:32.559Z,34.85
2022-12-09T21:22:04.489Z,32.45
2022-12-09T21:24:33.870Z,26.98
2022-12-09T21:27:02.797Z,37.67
2022-12-09T21:29:32.522Z,42.65
2022-12-09T21:32:04.373Z,38.65
2022-12-09T21:34:33.612Z,43.60
2022-12-09T21:37:05.117Z,39.70
2022-12-09T21:39:32.226Z,35.63
2022-12-09T21:42:01.115Z,36.83
2022-12-09T21:44:28.319Z,31.70
2022-12-09T21:46:57.289Z,34.67
2022-12-09T21:49:26.396Z,34.05
2022-12-09T21:51:55.265Z,44.92
2022-12-09T21:54:22.246Z,34.08
2022-12-09T21:56:49.147Z,38.92
2022-12-09T21:59:18.751Z,38.47
2022-12-09T22:01:47.711Z,40.75
2022-12-09T22:04:18.546Z,38.28
2022-12-09T22:06:50.677Z,87.65
2022-12-09T22:09:20.614Z,35.30
2022-12-09T22:11:47.485Z,34.30
2022-12-09T22:14:18.937Z,29.60
2022-12-09T22:16:47.892Z,30.08
2022-12-09T22:19:22.965Z,39.30
2022-12-09T22:21:50.189Z,35.58
2022-12-09T22:24:18.120Z,37.45
2022-12-09T22:26:45.574Z,32.67
2022-12-09T22:29:14.421Z,34.80
2022-12-09T22:31:46.380Z,35.03
2022-12-09T22:36:52.694Z,34.70
2022-12-09T22:39:25.896Z,32.78
2022-12-09T22:41:54.930Z,35.63
2022-12-09T22:44:21.744Z,36.03
2022-12-09T22:46:51.134Z,34.55
2022-12-09T22:49:18.218Z,34.42
2022-12-09T22:51:45.955Z,31.65
2022-12-09T22:54:15.265Z,30.35
2022-12-09T22:56:42.855Z,32.72
2022-12-09T22:59:10.063Z,35.75
2022-12-09T23:01:39.296Z,36.85
2022-12-09T23:04:08.356Z,33.42
2022-12-09T23:06:38.715Z,35.70
2022-12-09T23:09:07.243Z,35.50
2022-12-09T23:11:39.311Z,38.95
2022-12-09T23:16:35.433Z,32.33
2022-12-09T23:19:06.950Z,37.42
2022-12-09T23:21:36.088Z,41.42
2022-12-09T23:24:06.876Z,38.45
2022-12-09T23:26:36.978Z,34.67
2022-12-09T23:29:05.424Z,28.40
2022-12-09T23:31:39.090Z,37.08
2022-12-09T23:34:09.660Z,34.72
2022-12-09T23:36:41.100Z,28.38
2022-12-09T23:39:11.074Z,35.80
2022-12-09T23:41:46.947Z,36.33
2022-12-09T23:44:16.794Z,39.15
2022-12-09T23:46:44.278Z,36.28
2022-12-09T23:49:22.746Z,34.88
2022-12-09T23:52:16.634Z,29.77
2022-12-09T23:54:43.464Z,32.45
2022-12-09T23:57:10.210Z,30.23
2022-12-09T23:59:37.058Z,28.95
